Time;durP1;ratioP1;P1;durP2;ratioP2;P2;SDS_P1;SDS_P2;PMS_P1;PMS_P2;Temp;Humidity;BMP_temperature;BMP_pressure;BME280_temperature;BME280_humidity;BME280_pressure;Samples;Min_cycle;Max_cycle;Signal;HPM_P1;HPM_P2
2023/01/14 00:01:27;;;;;;;4.30;1.30;;;28.30;94.60;;;;;;5091571;28;20377;-82
2023/01/14 00:03:55;;;;;;;5.30;1.40;;;28.50;94.00;;;;;;5081939;28;20412;-84
2023/01/14 00:06:25;;;;;;;5.53;1.73;;;28.40;93.80;;;;;;5092486;28;20418;-82
2023/01/14 00:09:03;;;;;;;6.47;1.77;;;28.40;96.20;;;;;;5091451;28;20411;-90
2023/01/14 00:14:27;;;;;;;7.75;2.00;;;28.40;97.10;;;;;;5081299;28;20401;-84
2023/01/14 00:16:55;;;;;;;7.40;1.90;;;28.40;97.20;;;;;;5087980;28;20545;-83
2023/01/14 00:19:23;;;;;;;7.78;1.80;;;28.10;97.00;;;;;;5073094;28;20405;-85
2023/01/14 00:21:51;;;;;;;7.82;1.92;;;28.10;97.50;;;;;;5089731;28;20361;-86
2023/01/14 00:24:20;;;;;;;17.90;2.38;;;28.20;97.50;;;;;;5090426;28;20408;-83
2023/01/14 00:26:51;;;;;;;10.70;2.20;;;28.50;97.30;;;;;;5090729;28;20840;-84
2023/01/14 00:29:21;;;;;;;8.65;2.22;;;28.70;96.80;;;;;;5091732;28;20373;-84
2023/01/14 00:31:48;;;;;;;7.25;1.90;;;28.80;96.40;;;;;;5075960;28;20427;-91
2023/01/14 00:34:16;;;;;;;3.77;1.50;;;28.90;96.20;;;;;;5089098;28;20384;-80
2023/01/14 00:36:46;;;;;;;6.32;1.70;;;29.00;95.60;;;;;;5090592;28;20923;-88
2023/01/14 00:39:14;;;;;;;4.95;1.52;;;29.00;95.20;;;;;;5093489;28;20449;-84
2023/01/14 00:41:41;;;;;;;5.45;1.63;;;28.90;95.50;;;;;;5091901;28;20807;-85
2023/01/14 00:44:08;;;;;;;7.43;1.60;;;28.70;95.50;;;;;;5087902;28;20429;-87
2023/01/14 00:46:40;;;;;;;6.07;1.60;;;28.70;95.40;;;;;;5092580;28;20406;-89
2023/01/14 00:49:13;;;;;;;7.40;1.67;;;28.70;95.10;;;;;;5092731;28;20404;-90
2023/01/14 00:51:41;;;;;;;7.38;1.80;;;28.50;94.80;;;;;;5093918;28;20368;-84
2023/01/14 00:54:07;;;;;;;5.70;1.70;;;28.50;95.00;;;;;;5094205;28;20412;-91
2023/01/14 00:56:34;;;;;;;7.18;1.73;;;28.40;94.80;;;;;;5096470;28;20382;-89
2023/01/14 00:59:02;;;;;;;4.40;1.40;;;28.20;94.50;;;;;;5081576;28;20404;-85
2023/01/14 01:01:29;;;;;;;6.00;1.60;;;27.90;94.90;;;;;;5100521;28;20397;-82
2023/01/14 01:03:57;;;;;;;4.72;1.52;;;27.70;95.30;;;;;;5093815;28;20388;-82
2023/01/14 01:06:27;;;;;;;3.40;1.33;;;27.30;95.70;;;;;;5090769;28;20868;-86
2023/01/14 01:09:00;;;;;;;4.40;1.63;;;26.90;96.30;;;;;;5102724;28;20972;-84
2023/01/14 01:11:28;;;;;;;7.20;1.70;;;26.60;96.90;;;;;;5094572;28;20430;-81
2023/01/14 01:13:56;;;;;;;5.15;1.50;;;26.70;97.00;;;;;;5092594;28;20405;-87
2023/01/14 01:16:24;;;;;;;4.95;1.67;;;26.90;95.90;;;;;;5095924;28;20733;-85
2023/01/14 01:18:53;;;;;;;5.20;1.60;;;27.10;95.50;;;;;;5089482;28;20435;-82
2023/01/14 01:21:21;;;;;;;3.17;1.30;;;27.20;94.10;;;;;;5101406;28;20388;-82
2023/01/14 01:23:49;;;;;;;3.40;1.40;;;27.10;93.00;;;;;;5090625;28;20437;-81
2023/01/14 01:26:18;;;;;;;3.00;1.30;;;27.10;93.50;;;;;;5093115;28;20376;-89
2023/01/14 01:28:49;;;;;;;4.43;1.27;;;27.20;93.50;;;;;;5092710;28;20728;-82
2023/01/14 01:31:16;;;;;;;3.65;1.10;;;27.20;93.30;;;;;;5088077;28;20378;-82
2023/01/14 01:33:44;;;;;;;2.67;1.20;;;27.20;92.90;;;;;;5090217;28;20384;-79
2023/01/14 01:36:15;;;;;;;5.07;1.33;;;27.20;92.60;;;;;;5094309;28;20427;-87
2023/01/14 01:38:43;;;;;;;2.90;1.33;;;27.20;92.90;;;;;;5102655;28;20429;-79
2023/01/14 01:41:23;;;;;;;3.00;1.40;;;27.50;92.50;;;;;;5086165;28;20411;-87
2023/01/14 01:44:00;;;;;;;4.15;1.30;;;27.60;91.70;;;;;;5090770;28;20372;-82
2023/01/14 01:46:28;;;;;;;4.25;1.48;;;27.60;91.70;;;;;;5091959;28;20467;-82
2023/01/14 01:49:00;;;;;;;3.15;1.30;;;27.50;92.50;;;;;;5092226;28;20420;-84
2023/01/14 01:51:31;;;;;;;3.15;1.30;;;27.50;92.60;;;;;;5090504;28;20388;-81
2023/01/14 01:53:59;;;;;;;5.78;1.50;;;27.70;93.00;;;;;;5080576;28;20465;-80
2023/01/14 01:56:33;;;;;;;4.97;1.40;;;27.90;93.10;;;;;;5081624;28;20373;-91
2023/01/14 01:59:02;;;;;;;4.55;1.45;;;28.20;92.70;;;;;;5089652;28;20403;-81
2023/01/14 02:01:29;;;;;;;4.43;1.50;;;28.50;92.10;;;;;;5089278;28;20377;-83
2023/01/14 02:03:57;;;;;;;4.13;1.50;;;28.50;93.00;;;;;;5098984;28;20388;-90
2023/01/14 02:06:24;;;;;;;3.90;1.70;;;28.40;93.50;;;;;;5089595;28;20408;-81
2023/01/14 02:08:53;;;;;;;5.32;1.95;;;28.50;93.70;;;;;;5090444;28;20392;-84
2023/01/14 02:11:35;;;;;;;4.72;1.63;;;28.30;93.70;;;;;;5089512;28;20736;-88
2023/01/14 02:14:08;;;;;;;4.57;1.70;;;28.50;93.70;;;;;;5092167;28;20418;-82
2023/01/14 02:16:37;;;;;;;4.70;1.67;;;29.40;92.70;;;;;;5088100;28;20396;-85
2023/01/14 02:19:34;;;;;;;5.70;1.60;;;29.60;91.90;;;;;;5088287;28;20497;-86
2023/01/14 02:22:34;;;;;;;5.00;1.50;;;29.50;92.00;;;;;;5088147;28;20429;-85
2023/01/14 02:25:30;;;;;;;4.57;1.80;;;29.20;91.90;;;;;;5089900;28;20608;-85
2023/01/14 02:28:35;;;;;;;7.03;1.80;;;28.60;92.40;;;;;;5083490;28;20384;-85
2023/01/14 02:31:21;;;;;;;5.18;2.25;;;28.20;93.00;;;;;;5030072;28;20430;-86
2023/01/14 02:34:15;;;;;;;4.88;1.80;;;28.00;93.30;;;;;;5046923;28;20510;-84
2023/01/14 02:36:49;;;;;;;4.45;1.50;;;28.10;93.30;;;;;;5029941;28;20383;-85
2023/01/14 02:39:26;;;;;;;4.13;1.30;;;28.10;93.20;;;;;;5046814;28;20491;-85
2023/01/14 02:45:03;;;;;;;4.28;1.30;;;28.20;92.50;;;;;;5049497;28;20422;-84
2023/01/14 02:47:33;;;;;;;4.00;1.20;;;28.30;92.60;;;;;;5050180;28;20423;-83
2023/01/14 02:50:01;;;;;;;4.82;1.40;;;29.30;92.30;;;;;;5050566;28;20441;-83
2023/01/14 02:52:28;;;;;;;4.65;1.40;;;29.70;91.60;;;;;;5030090;28;20385;-86
2023/01/14 02:54:57;;;;;;;4.93;1.52;;;29.90;90.80;;;;;;5043135;28;20392;-86
2023/01/14 02:57:52;;;;;;;3.72;1.30;;;29.90;90.70;;;;;;5050103;28;20375;-88
2023/01/14 03:00:27;;;;;;;5.15;1.40;;;30.70;90.90;;;;;;5050263;28;20499;-92
2023/01/14 03:03:18;;;;;;;3.55;1.50;;;31.70;89.00;;;;;;5050395;28;20462;-87
2023/01/14 03:06:07;;;;;;;3.47;1.20;;;32.30;86.00;;;;;;5050247;28;20459;-86
2023/01/14 03:08:51;;;;;;;4.38;1.35;;;32.50;84.10;;;;;;5073089;28;20878;-88
2023/01/14 03:11:18;;;;;;;3.65;1.10;;;32.40;84.20;;;;;;5092742;28;20437;-85
2023/01/14 03:13:45;;;;;;;2.65;1.20;;;32.50;83.40;;;;;;5093276;28;20368;-85
2023/01/14 03:16:24;;;;;;;4.70;1.50;;;33.10;83.50;;;;;;5092869;28;20417;-85
2023/01/14 03:18:58;;;;;;;5.78;1.45;;;33.90;80.90;;;;;;5093083;28;20478;-86
2023/01/14 03:21:31;;;;;;;4.03;1.40;;;34.40;78.30;;;;;;5092561;28;20392;-85
2023/01/14 03:24:17;;;;;;;4.90;1.52;;;34.10;78.40;;;;;;5093018;28;20377;-88
2023/01/14 03:26:48;;;;;;;2.93;1.20;;;33.30;78.40;;;;;;5092646;28;20396;-89
2023/01/14 03:29:28;;;;;;;5.40;1.58;;;32.10;80.20;;;;;;5092353;28;20856;-89
2023/01/14 03:32:07;;;;;;;4.60;1.48;;;31.30;82.40;;;;;;5092353;28;20368;-86
2023/01/14 03:34:49;;;;;;;4.40;1.42;;;31.00;83.30;;;;;;5092148;28;20932;-86
2023/01/14 03:37:18;;;;;;;3.00;1.45;;;30.70;84.00;;;;;;5091839;28;20427;-85
2023/01/14 03:39:47;;;;;;;3.65;1.50;;;30.60;84.50;;;;;;5092180;28;20494;-87
2023/01/14 03:42:19;;;;;;;5.87;1.60;;;30.60;84.50;;;;;;5092061;28;20455;-86
2023/01/14 03:45:10;;;;;;;6.63;1.53;;;30.90;84.50;;;;;;5092103;28;20930;-85
2023/01/14 03:47:38;;;;;;;5.70;1.60;;;31.90;83.10;;;;;;5092112;28;20360;-87
2023/01/14 03:50:08;;;;;;;3.35;1.60;;;32.20;82.10;;;;;;5092065;28;20404;-86
2023/01/14 03:52:51;;;;;;;5.22;1.70;;;31.60;81.80;;;;;;5072111;28;20370;-88
2023/01/14 03:55:22;;;;;;;4.57;1.50;;;31.90;82.30;;;;;;5087383;28;20973;-87
2023/01/14 03:58:01;;;;;;;3.70;1.30;;;33.10;80.10;;;;;;5091782;28;20372;-85
2023/01/14 04:00:37;;;;;;;5.03;1.48;;;33.50;79.80;;;;;;5091712;28;20445;-87
2023/01/14 04:03:09;;;;;;;3.80;1.20;;;34.40;77.90;;;;;;5091650;28;20368;-86
2023/01/14 04:05:37;;;;;;;5.45;1.60;;;35.00;74.10;;;;;;5091710;28;20422;-86
2023/01/14 04:08:06;;;;;;;3.10;1.30;;;35.50;73.70;;;;;;5091360;28;20380;-87
2023/01/14 04:10:33;;;;;;;5.30;1.40;;;36.00;71.80;;;;;;5091581;28;20800;-83
2023/01/14 04:15:45;;;;;;;4.03;1.20;;;36.40;69.70;;;;;;5091577;28;20860;-86
2023/01/14 04:18:12;;;;;;;3.17;1.20;;;36.00;69.00;;;;;;5091162;28;20400;-85
2023/01/14 04:20:39;;;;;;;3.42;1.20;;;36.10;69.10;;;;;;5091353;28;20376;-87
2023/01/14 04:23:06;;;;;;;4.05;1.40;;;36.40;67.40;;;;;;5091351;28;20360;-87
2023/01/14 04:25:33;;;;;;;4.30;1.33;;;35.90;67.80;;;;;;5091308;28;20871;-86
2023/01/14 04:28:00;;;;;;;4.60;1.27;;;35.90;68.20;;;;;;5091191;28;20879;-89
2023/01/14 04:30:27;;;;;;;4.20;1.20;;;36.30;67.30;;;;;;5091273;28;20368;-85
2023/01/14 04:32:54;;;;;;;4.70;1.40;;;36.40;67.30;;;;;;5091069;28;20434;-87
2023/01/14 04:35:21;;;;;;;2.47;1.15;;;36.10;67.40;;;;;;5091246;28;20953;-87
2023/01/14 04:37:47;;;;;;;3.97;1.20;;;35.90;66.00;;;;;;5090715;28;20408;-86
2023/01/14 04:40:14;;;;;;;3.28;1.13;;;35.60;67.10;;;;;;5091079;28;20868;-88
2023/01/14 04:42:41;;;;;;;2.75;1.20;;;35.40;66.30;;;;;;5078473;28;20442;-86
2023/01/14 04:45:10;;;;;;;3.85;1.30;;;35.00;67.10;;;;;;5091153;28;20385;-86
2023/01/14 04:47:38;;;;;;;3.57;1.30;;;35.00;67.70;;;;;;5089971;28;20360;-88
2023/01/14 04:52:51;;;;;;;5.80;1.30;;;35.40;66.50;;;;;;5082322;28;20499;-90
2023/01/14 04:55:20;;;;;;;5.82;1.38;;;35.10;66.40;;;;;;5086389;28;20414;-85
2023/01/14 04:57:47;;;;;;;4.07;1.40;;;34.40;68.90;;;;;;5090722;28;20493;-89
2023/01/14 05:00:14;;;;;;;4.82;1.52;;;33.80;69.60;;;;;;5090465;28;20434;-86
2023/01/14 05:02:41;;;;;;;3.65;1.50;;;33.20;70.10;;;;;;5090738;28;20400;-88
2023/01/14 05:05:08;;;;;;;6.57;1.50;;;32.80;71.30;;;;;;5090008;28;20418;-87
2023/01/14 05:07:35;;;;;;;4.72;1.48;;;33.10;71.10;;;;;;5090932;28;20376;-86
2023/01/14 05:10:02;;;;;;;6.15;1.50;;;32.60;71.60;;;;;;5090522;28;20732;-86
2023/01/14 05:12:29;;;;;;;4.78;1.88;;;32.20;72.80;;;;;;5090351;28;20467;-87
2023/01/14 05:14:56;;;;;;;5.43;1.30;;;32.30;72.30;;;;;;5090071;28;20887;-87
2023/01/14 05:17:23;;;;;;;3.53;1.40;;;32.40;72.30;;;;;;5089033;28;20860;-85
2023/01/14 05:19:50;;;;;;;5.25;1.67;;;31.90;72.90;;;;;;5090227;28;20491;-87
2023/01/14 05:22:17;;;;;;;4.10;1.33;;;31.90;72.80;;;;;;5090363;28;20372;-87
2023/01/14 05:24:44;;;;;;;3.65;1.40;;;31.80;73.10;;;;;;5090109;28;20383;-86
2023/01/14 05:27:11;;;;;;;3.30;1.40;;;31.60;73.30;;;;;;5090253;28;20368;-86
2023/01/14 05:29:38;;;;;;;3.58;1.30;;;31.70;74.00;;;;;;5090148;28;20379;-88
2023/01/14 05:32:05;;;;;;;6.90;1.60;;;31.60;73.80;;;;;;5090411;28;20390;-87
2023/01/14 05:34:32;;;;;;;3.15;1.40;;;32.00;73.30;;;;;;5090210;28;20372;-85
2023/01/14 05:36:59;;;;;;;4.38;1.35;;;32.40;72.10;;;;;;5090226;28;20388;-85
2023/01/14 05:39:26;;;;;;;5.40;1.50;;;32.10;72.10;;;;;;5090137;28;20407;-86
2023/01/14 05:47:27;;;;;;;3.00;1.30;;;31.70;72.70;;;;;;5008215;28;20382;-87
2023/01/14 05:49:54;;;;;;;3.30;1.40;;;31.50;72.20;;;;;;5008042;28;20890;-86
2023/01/14 05:52:21;;;;;;;3.10;1.40;;;31.30;73.20;;;;;;5007649;28;20425;-86
2023/01/14 05:54:48;;;;;;;4.18;1.45;;;30.90;74.70;;;;;;5008127;28;20462;-86
2023/01/14 05:57:15;;;;;;;5.35;1.42;;;30.30;76.20;;;;;;5007925;28;20402;-85
2023/01/14 05:59:42;;;;;;;4.38;1.50;;;31.10;76.80;;;;;;5008051;28;20422;-89
2023/01/14 06:07:40;;;;;;;4.47;1.40;;;31.80;73.00;;;;;;5007902;28;20414;-84
2023/01/14 06:10:08;;;;;;;4.80;1.40;;;31.30;74.40;;;;;;5007643;28;20445;-87
2023/01/14 06:12:57;;;;;;;3.53;1.30;;;31.80;73.70;;;;;;5007894;28;20438;-86
2023/01/14 06:15:21;;;;;;;3.70;1.58;;;31.80;72.90;;;;;;5009120;28;20906;-86
2023/01/14 06:17:57;;;;;;;3.35;1.40;;;31.70;73.00;;;;;;5011617;28;20394;-87
2023/01/14 06:20:25;;;;;;;4.72;1.35;;;31.40;72.80;;;;;;5011605;28;20445;-87
2023/01/14 06:22:55;;;;;;;3.65;1.30;;;31.10;73.50;;;;;;5087929;28;20368;-87
2023/01/14 06:25:22;;;;;;;3.88;1.40;;;30.50;74.20;;;;;;5093771;28;20463;-86
2023/01/14 06:27:49;;;;;;;3.70;1.35;;;30.20;74.60;;;;;;5093506;28;20876;-86
2023/01/14 06:30:16;;;;;;;6.95;1.50;;;30.30;75.00;;;;;;5093683;28;20376;-86
2023/01/14 06:32:43;;;;;;;4.60;1.30;;;30.60;74.60;;;;;;5093424;28;20376;-86
2023/01/14 06:35:10;;;;;;;4.13;1.40;;;30.80;73.90;;;;;;5093544;28;20387;-85
2023/01/14 06:37:37;;;;;;;3.80;1.30;;;30.80;74.00;;;;;;5093173;28;20434;-87
2023/01/14 06:40:04;;;;;;;4.28;1.40;;;31.00;74.00;;;;;;5082529;28;20404;-87
2023/01/14 06:42:31;;;;;;;4.15;1.30;;;30.80;73.80;;;;;;5091261;28;20460;-87
2023/01/14 06:44:58;;;;;;;3.50;1.65;;;30.60;74.70;;;;;;5093668;28;20368;-86
2023/01/14 06:47:25;;;;;;;3.22;1.30;;;31.10;74.60;;;;;;5093253;28;20929;-86
2023/01/14 06:49:52;;;;;;;4.18;1.73;;;31.70;72.10;;;;;;5093539;28;20400;-85
2023/01/14 06:52:19;;;;;;;4.30;1.30;;;32.20;72.00;;;;;;5088880;28;20401;-89
2023/01/14 06:54:47;;;;;;;4.72;1.30;;;32.70;71.00;;;;;;5084540;28;20418;-85
2023/01/14 06:57:14;;;;;;;4.65;1.20;;;32.90;70.30;;;;;;5091861;28;20770;-89
2023/01/14 06:59:41;;;;;;;2.72;1.10;;;33.10;69.20;;;;;;5093376;28;20442;-87
2023/01/14 07:02:13;;;;;;;4.10;1.10;;;33.00;69.20;;;;;;5087883;28;20370;-87
2023/01/14 07:04:40;;;;;;;2.63;1.10;;;32.40;69.00;;;;;;5085959;28;20751;-87
2023/01/14 07:07:07;;;;;;;4.35;1.20;;;31.40;71.50;;;;;;5093280;28;20369;-86
2023/01/14 07:09:34;;;;;;;5.95;1.42;;;30.30;74.90;;;;;;5093140;28;20464;-87
2023/01/14 07:12:01;;;;;;;3.08;1.20;;;29.60;76.20;;;;;;5093226;28;20404;-85
2023/01/14 07:14:28;;;;;;;5.45;1.23;;;29.00;77.60;;;;;;5092767;28;20728;-85
2023/01/14 07:16:56;;;;;;;4.40;1.30;;;28.60;79.20;;;;;;5080110;28;20404;-86
2023/01/14 07:19:25;;;;;;;4.18;1.10;;;28.30;79.80;;;;;;5092634;28;20439;-85
2023/01/14 07:21:52;;;;;;;3.33;1.20;;;28.20;80.30;;;;;;5080487;28;20393;-84
2023/01/14 07:24:19;;;;;;;6.35;1.30;;;28.10;80.80;;;;;;5092576;28;20455;-84
2023/01/14 07:26:46;;;;;;;4.13;1.20;;;28.00;81.20;;;;;;5091993;28;20373;-87
2023/01/14 07:29:14;;;;;;;4.53;1.40;;;28.00;80.80;;;;;;5092482;28;20445;-84
2023/01/14 07:31:42;;;;;;;4.50;1.20;;;27.90;81.10;;;;;;5092557;28;20890;-84
2023/01/14 07:34:08;;;;;;;6.10;2.05;;;27.80;81.70;;;;;;5079800;28;20409;-85
2023/01/14 07:36:35;;;;;;;5.20;2.38;;;27.70;82.00;;;;;;5092161;28;20365;-85
2023/01/14 07:39:02;;;;;;;9.20;6.28;;;27.60;82.30;;;;;;5091985;28;20392;-84
2023/01/14 07:41:29;;;;;;;7.28;2.85;;;27.50;82.80;;;;;;5092260;28;20898;-86
2023/01/14 07:43:56;;;;;;;5.00;1.65;;;27.40;83.30;;;;;;5090686;28;20383;-86
2023/01/14 07:46:23;;;;;;;9.57;5.30;;;27.30;83.40;;;;;;5092030;28;20379;-84
2023/01/14 07:48:50;;;;;;;6.32;2.00;;;27.40;84.40;;;;;;5080067;28;20381;-84
2023/01/14 07:51:20;;;;;;;4.65;1.60;;;27.50;83.50;;;;;;5092197;28;20380;-85
2023/01/14 07:53:50;;;;;;;5.40;1.70;;;27.40;83.60;;;;;;5078539;28;20422;-84
2023/01/14 07:56:17;;;;;;;2.95;1.27;;;27.20;84.00;;;;;;5092042;28;20550;-86
2023/01/14 07:58:46;;;;;;;3.65;1.20;;;27.50;83.90;;;;;;5091657;28;20400;-83
2023/01/14 08:01:13;;;;;;;4.35;1.50;;;28.00;82.20;;;;;;5091944;28;20384;-83
2023/01/14 08:03:40;;;;;;;6.28;4.50;;;28.30;81.20;;;;;;5091629;28;20895;-85
2023/01/14 08:06:07;;;;;;;3.58;1.30;;;28.50;80.90;;;;;;5091843;28;20383;-85
2023/01/14 08:08:34;;;;;;;5.10;1.10;;;28.60;80.10;;;;;;5091485;28;20450;-84
2023/01/14 08:11:02;;;;;;;4.28;1.20;;;28.50;79.70;;;;;;5091352;28;20840;-83
2023/01/14 08:13:31;;;;;;;4.38;1.10;;;28.30;80.00;;;;;;5091643;28;20372;-83
2023/01/14 08:15:59;;;;;;;3.93;0.97;;;28.00;80.80;;;;;;5091643;28;20380;-84
2023/01/14 08:18:27;;;;;;;3.90;1.13;;;27.70;81.50;;;;;;5091326;28;20400;-85
2023/01/14 08:20:58;;;;;;;4.72;1.17;;;27.20;82.80;;;;;;5091623;28;20373;-84
2023/01/14 08:23:25;;;;;;;5.47;1.00;;;26.70;84.90;;;;;;5091124;28;20368;-87
2023/01/14 08:25:53;;;;;;;3.40;1.10;;;26.40;86.10;;;;;;5091114;28;20375;-85
2023/01/14 08:28:20;;;;;;;6.47;1.40;;;26.20;87.60;;;;;;5091270;28;20372;-86
2023/01/14 08:30:47;;;;;;;4.93;1.50;;;25.90;88.70;;;;;;5091302;28;20838;-86
2023/01/14 08:33:14;;;;;;;4.32;1.40;;;25.60;89.70;;;;;;5091769;28;20698;-86
2023/01/14 08:35:41;;;;;;;6.13;1.60;;;25.40;90.40;;;;;;5091164;28;20400;-86
2023/01/14 08:38:08;;;;;;;4.60;1.30;;;25.30;90.50;;;;;;5077801;28;20411;-86
2023/01/14 08:40:35;;;;;;;5.68;1.38;;;25.10;90.90;;;;;;5091454;28;20414;-86
2023/01/14 08:43:02;;;;;;;5.45;1.20;;;25.00;91.10;;;;;;5091747;28;20381;-88
2023/01/14 08:45:30;;;;;;;4.93;1.30;;;24.90;91.50;;;;;;5091178;28;20415;-86
2023/01/14 08:47:58;;;;;;;6.82;1.52;;;24.80;91.60;;;;;;5091641;28;20372;-85
2023/01/14 08:50:25;;;;;;;5.05;1.40;;;24.80;91.90;;;;;;5090692;28;20376;-85
2023/01/14 08:52:52;;;;;;;5.35;1.20;;;24.70;92.20;;;;;;5091064;28;20486;-86
2023/01/14 08:55:18;;;;;;;3.85;1.15;;;24.60;92.30;;;;;;5090479;28;20377;-87
2023/01/14 08:57:45;;;;;;;5.80;1.30;;;24.50;92.50;;;;;;5090800;28;20775;-85
2023/01/14 09:00:13;;;;;;;5.13;1.05;;;24.50;92.90;;;;;;5090909;28;20919;-84
2023/01/14 09:02:40;;;;;;;6.35;1.25;;;24.40;93.10;;;;;;5090875;28;20372;-84
2023/01/14 09:05:07;;;;;;;3.30;1.15;;;24.40;93.30;;;;;;5090402;28;20507;-86
2023/01/14 09:18:35;;;;;;;5.47;1.17;;;24.00;94.80;;;;;;5090165;28;20461;-87
2023/01/14 09:21:03;;;;;;;5.45;1.02;;;24.00;95.00;;;;;;5089808;28;20407;-85
2023/01/14 09:23:30;;;;;;;4.70;1.20;;;23.90;95.20;;;;;;5090461;28;20399;-85
2023/01/14 09:25:56;;;;;;;5.28;1.17;;;23.90;95.40;;;;;;5089632;28;20375;-85
2023/01/14 09:28:23;;;;;;;5.30;1.20;;;24.00;95.60;;;;;;5078144;28;20785;-86
2023/01/14 09:30:50;;;;;;;5.03;1.15;;;24.00;95.70;;;;;;5089995;28;20368;-85
2023/01/14 09:33:17;;;;;;;4.55;1.30;;;24.00;96.00;;;;;;5090131;28;20860;-85
2023/01/14 09:35:44;;;;;;;5.45;1.40;;;24.10;96.00;;;;;;5090047;28;20376;-84
2023/01/14 09:38:11;;;;;;;7.47;1.42;;;24.00;96.10;;;;;;5090170;28;20400;-85
2023/01/14 09:40:41;;;;;;;4.15;1.10;;;24.00;96.30;;;;;;5089971;28;20449;-86
2023/01/14 09:43:16;;;;;;;3.80;1.25;;;24.00;96.50;;;;;;5090359;28;20728;-84
2023/01/14 09:45:43;;;;;;;4.35;1.13;;;24.00;96.60;;;;;;5089779;28;20752;-84
2023/01/14 09:48:19;;;;;;;6.53;1.40;;;24.00;96.80;;;;;;5090242;28;20376;-88
2023/01/14 09:51:13;;;;;;;4.40;1.30;;;23.90;97.00;;;;;;5089682;28;20397;-86
2023/01/14 09:54:04;;;;;;;4.05;1.13;;;23.80;97.00;;;;;;5075103;28;20378;-86
2023/01/14 09:57:08;;;;;;;4.38;1.10;;;23.80;97.20;;;;;;5090183;28;20879;-84
2023/01/14 10:00:00;;;;;;;4.50;1.20;;;23.70;97.40;;;;;;5007531;28;20411;-84
2023/01/14 10:02:41;;;;;;;5.97;1.25;;;23.70;97.60;;;;;;5015581;28;20392;-85
2023/01/14 10:05:29;;;;;;;6.78;1.40;;;23.70;97.80;;;;;;5027458;28;20477;-86
2023/01/14 10:07:59;;;;;;;4.22;1.27;;;23.60;98.10;;;;;;5027609;28;20466;-86
2023/01/14 10:10:32;;;;;;;5.88;1.40;;;23.60;98.40;;;;;;5027013;28;20414;-85
2023/01/14 10:13:06;;;;;;;5.90;1.40;;;23.50;98.50;;;;;;5027995;28;20389;-87
2023/01/14 10:15:43;;;;;;;6.38;1.38;;;23.40;98.90;;;;;;5027788;28;20381;-84
2023/01/14 10:18:31;;;;;;;6.47;1.40;;;23.40;99.10;;;;;;5027266;28;20410;-84
2023/01/14 10:21:13;;;;;;;3.90;1.45;;;23.30;99.30;;;;;;5027125;28;20686;-85
2023/01/14 10:23:41;;;;;;;5.63;1.30;;;23.20;99.60;;;;;;5027503;28;20423;-87
2023/01/14 10:26:18;;;;;;;5.82;1.50;;;23.20;99.90;;;;;;5026955;28;20865;-86
2023/01/14 10:28:50;;;;;;;4.63;1.30;;;23.20;99.90;;;;;;5027122;28;20440;-86
2023/01/14 10:31:37;;;;;;;7.05;1.33;;;23.10;99.90;;;;;;5026978;28;20393;-86
2023/01/14 10:34:04;;;;;;;5.80;1.30;;;23.00;99.90;;;;;;5027168;28;20408;-86
2023/01/14 10:36:31;;;;;;;7.07;1.50;;;22.90;99.90;;;;;;5067949;28;20398;-85
2023/01/14 10:39:02;;;;;;;5.20;1.30;;;22.80;99.90;;;;;;5089170;28;20441;-86
2023/01/14 10:44:23;;;;;;;6.80;1.42;;;22.80;99.90;;;;;;5089189;28;20421;-85
2023/01/14 10:46:54;;;;;;;5.90;1.42;;;22.80;99.90;;;;;;5089479;28;20364;-86
2023/01/14 10:49:52;;;;;;;5.82;1.42;;;22.80;99.90;;;;;;5089552;28;20506;-85
2023/01/14 10:52:22;;;;;;;7.65;1.33;;;22.80;99.90;;;;;;5046330;28;20951;-85
2023/01/14 10:55:01;;;;;;;6.45;1.30;;;22.80;99.90;;;;;;5046793;28;20392;-84
2023/01/14 10:57:38;;;;;;;5.33;1.23;;;22.80;99.90;;;;;;5046769;28;20382;-85
2023/01/14 11:00:09;;;;;;;5.43;1.50;;;22.80;99.90;;;;;;5046652;28;20941;-85
2023/01/14 11:02:45;;;;;;;7.93;1.38;;;22.70;99.90;;;;;;5048527;28;20386;-85
2023/01/14 11:05:28;;;;;;;4.70;1.20;;;22.70;99.90;;;;;;5050269;28;20418;-84
2023/01/14 11:07:59;;;;;;;6.83;1.40;;;22.70;99.90;;;;;;5050288;28;20388;-85
2023/01/14 11:10:29;;;;;;;6.53;1.40;;;22.60;99.90;;;;;;5036966;28;20374;-87
2023/01/14 11:13:27;;;;;;;5.53;1.55;;;22.60;99.90;;;;;;5050070;28;20856;-85
2023/01/14 11:15:54;;;;;;;5.85;1.30;;;22.70;99.90;;;;;;5049312;28;20395;-85
2023/01/14 11:18:23;;;;;;;6.15;1.40;;;22.60;99.90;;;;;;5049869;28;20391;-85
2023/01/14 11:21:16;;;;;;;4.90;1.30;;;22.60;99.90;;;;;;5050006;28;20396;-86
2023/01/14 11:23:59;;;;;;;5.40;1.30;;;22.60;99.90;;;;;;5039301;28;20384;-85
2023/01/14 11:26:37;;;;;;;6.93;1.40;;;22.50;99.90;;;;;;5049545;28;20398;-86
2023/01/14 11:29:15;;;;;;;5.63;1.40;;;22.50;99.90;;;;;;5064347;28;20377;-85
2023/01/14 11:31:44;;;;;;;5.47;1.40;;;22.50;99.90;;;;;;5080822;28;20407;-86
2023/01/14 11:34:51;;;;;;;5.03;1.20;;;22.50;99.90;;;;;;5092118;28;20376;-85
2023/01/14 11:37:31;;;;;;;7.60;1.40;;;22.50;99.90;;;;;;5049341;28;20406;-85
2023/01/14 11:39:59;;;;;;;6.65;1.50;;;22.50;99.90;;;;;;5049626;28;20408;-86
2023/01/14 11:42:40;;;;;;;5.97;1.50;;;22.50;99.90;;;;;;5049281;28;20437;-85
2023/01/14 11:45:13;;;;;;;7.20;1.40;;;22.50;99.90;;;;;;5049457;28;20938;-85
2023/01/14 11:47:54;;;;;;;7.88;1.70;;;22.50;99.90;;;;;;5049260;28;20383;-85
2023/01/14 11:50:24;;;;;;;6.23;1.20;;;22.50;99.90;;;;;;5049272;28;20376;-85
2023/01/14 11:53:08;;;;;;;5.20;1.30;;;22.60;99.90;;;;;;5049342;28;20414;-86
2023/01/14 11:55:39;;;;;;;4.47;1.30;;;22.50;99.90;;;;;;5049314;28;20414;-85
2023/01/14 11:58:30;;;;;;;6.30;1.35;;;22.50;99.90;;;;;;5049178;28;20466;-86
2023/01/14 12:01:21;;;;;;;3.30;1.20;;;22.50;99.90;;;;;;5049439;28;20372;-85
2023/01/14 12:04:06;;;;;;;4.47;1.42;;;22.40;99.90;;;;;;5048882;28;20395;-86
2023/01/14 12:06:41;;;;;;;8.48;1.50;;;22.40;99.90;;;;;;5048993;28;20379;-85
2023/01/14 12:09:18;;;;;;;5.70;1.50;;;22.30;99.90;;;;;;5049235;28;20878;-86
2023/01/14 12:12:03;;;;;;;6.68;1.55;;;22.40;99.90;;;;;;5048962;28;20395;-86
2023/01/14 12:17:42;;;;;;;6.05;1.30;;;22.30;99.90;;;;;;5092159;28;20480;-86
2023/01/14 12:20:13;;;;;;;4.97;1.30;;;22.30;99.90;;;;;;5091275;28;20902;-86
2023/01/14 12:22:51;;;;;;;6.47;1.50;;;22.20;99.90;;;;;;5091504;28;20364;-86
2023/01/14 12:25:28;;;;;;;6.10;1.40;;;22.20;99.90;;;;;;5091342;28;20369;-85
2023/01/14 12:28:04;;;;;;;4.90;1.40;;;22.20;99.90;;;;;;5091172;28;20383;-86
2023/01/14 12:30:52;;;;;;;6.53;1.50;;;22.20;99.90;;;;;;5091249;28;20364;-85
2023/01/14 12:33:53;;;;;;;5.57;1.30;;;22.20;99.90;;;;;;5091201;28;20864;-86
2023/01/14 12:36:38;;;;;;;6.82;1.40;;;22.20;99.90;;;;;;5091118;28;20372;-86
2023/01/14 12:45:47;;;;;;;5.80;1.25;;;22.20;99.90;;;;;;5090886;28;20400;-85
2023/01/14 12:48:20;;;;;;;6.57;1.40;;;22.20;99.90;;;;;;5081886;28;20398;-86
2023/01/14 12:51:00;;;;;;;7.20;1.40;;;22.20;99.90;;;;;;5089347;28;20388;-86
2023/01/14 12:53:49;;;;;;;6.03;1.40;;;22.20;99.90;;;;;;5077273;28;20371;-85
2023/01/14 12:56:22;;;;;;;5.15;1.38;;;22.20;99.90;;;;;;5089409;28;20876;-86
2023/01/14 12:59:05;;;;;;;4.80;1.20;;;22.10;99.90;;;;;;5090422;28;20392;-86
2023/01/14 13:01:49;;;;;;;5.93;1.50;;;22.10;99.90;;;;;;5090669;28;20539;-86
2023/01/14 13:04:21;;;;;;;3.80;1.20;;;22.10;99.90;;;;;;5090620;28;20363;-85
2023/01/14 13:06:58;;;;;;;5.25;1.27;;;22.10;99.90;;;;;;5090407;28;20438;-85
2023/01/14 13:09:31;;;;;;;9.45;1.40;;;22.00;99.90;;;;;;5090622;28;20430;-85
2023/01/14 13:11:59;;;;;;;4.33;1.10;;;22.00;99.90;;;;;;5090151;28;20373;-86
2023/01/14 13:14:34;;;;;;;5.67;1.20;;;21.90;99.90;;;;;;5090454;28;20373;-85
2023/01/14 13:17:08;;;;;;;5.38;1.35;;;21.90;99.90;;;;;;5078066;28;20790;-85
2023/01/14 13:19:54;;;;;;;5.85;1.25;;;21.80;99.90;;;;;;5090059;28;20400;-86
2023/01/14 13:22:45;;;;;;;4.90;1.20;;;21.80;99.90;;;;;;5090328;28;20791;-86
2023/01/14 13:25:31;;;;;;;7.35;1.20;;;21.70;99.90;;;;;;5089811;28;20775;-85
2023/01/14 13:28:00;;;;;;;6.93;1.30;;;21.70;99.90;;;;;;5090308;28;20381;-85
2023/01/14 13:30:26;;;;;;;4.73;1.20;;;21.60;99.90;;;;;;5090135;28;20386;-85
2023/01/14 13:33:00;;;;;;;5.45;1.17;;;21.50;99.90;;;;;;5090020;28;20882;-85
2023/01/14 13:35:32;;;;;;;5.05;1.30;;;21.50;99.90;;;;;;5090134;28;20365;-86
2023/01/14 13:38:02;;;;;;;6.63;1.23;;;21.50;99.90;;;;;;5090026;28;20495;-86
2023/01/14 13:40:34;;;;;;;5.15;1.20;;;21.40;99.90;;;;;;5090144;28;20384;-85
2023/01/14 13:43:06;;;;;;;7.40;1.38;;;21.40;99.90;;;;;;5090115;28;20360;-86
2023/01/14 13:45:39;;;;;;;5.60;1.30;;;21.40;99.90;;;;;;5089942;28;20377;-86
2023/01/14 13:48:36;;;;;;;6.78;1.30;;;21.40;99.90;;;;;;5090070;28;20371;-86
2023/01/14 13:51:38;;;;;;;5.43;1.20;;;21.40;99.90;;;;;;5069218;28;20390;-85
2023/01/14 13:54:11;;;;;;;5.07;1.23;;;21.40;99.90;;;;;;5075378;28;20467;-85
2023/01/14 13:56:49;;;;;;;6.43;1.25;;;21.40;99.90;;;;;;5089867;28;20511;-86
2023/01/14 13:59:24;;;;;;;5.13;1.23;;;21.30;99.90;;;;;;5077906;28;20408;-85
2023/01/14 14:01:51;;;;;;;5.72;1.45;;;21.30;99.90;;;;;;5089766;28;20360;-86